createdAt,value
2022-09-09T00:00:22.164Z,17.05
2022-09-09T00:01:38.341Z,17.35
2022-09-09T00:02:41.746Z,17.18
2022-09-09T00:03:55.033Z,17.22
2022-09-09T00:05:03.134Z,17.38
2022-09-09T00:06:22.222Z,17.37
2022-09-09T00:07:40.035Z,17.28
2022-09-09T00:08:41.800Z,17.43
2022-09-09T00:10:20.922Z,17.43
2022-09-09T00:11:42.412Z,17.46
2022-09-09T00:12:53.083Z,17.48
2022-09-09T00:13:58.092Z,17.50
2022-09-09T00:15:06.335Z,17.60
2022-09-09T00:16:25.251Z,17.33
2022-09-09T00:17:45.845Z,17.97
2022-09-09T00:19:08.248Z,17.89
2022-09-09T00:20:20.421Z,18.22
2022-09-09T00:21:33.919Z,18.03
2022-09-09T00:22:37.770Z,17.96
2022-09-09T00:23:44.307Z,18.15
2022-09-09T00:24:48.686Z,18.10
2022-09-09T00:25:59.752Z,18.07
2022-09-09T00:27:14.514Z,17.80
2022-09-09T00:28:26.743Z,17.98
2022-09-09T00:29:44.564Z,17.95
2022-09-09T00:30:50.556Z,17.86
2022-09-09T00:31:58.650Z,17.80
2022-09-09T00:33:16.253Z,17.73
2022-09-09T00:34:22.611Z,17.74
2022-09-09T00:35:28.671Z,17.83
2022-09-09T00:36:34.333Z,17.87
2022-09-09T00:37:37.141Z,18.26
2022-09-09T00:38:44.176Z,18.33
2022-09-09T00:39:53.272Z,18.42
2022-09-09T00:41:16.339Z,18.59
2022-09-09T00:42:27.875Z,18.68
2022-09-09T00:43:31.332Z,18.76
2022-09-09T00:44:36.849Z,18.85
2022-09-09T00:45:53.997Z,18.87
2022-09-09T00:47:33.915Z,18.91
2022-09-09T00:48:58.786Z,19.15
2022-09-09T00:50:19.033Z,19.21
2022-09-09T00:51:51.566Z,19.33
2022-09-09T00:53:23.285Z,19.37
2022-09-09T00:54:33.791Z,19.41
2022-09-09T00:56:17.746Z,19.03
2022-09-09T00:57:34.711Z,19.40
2022-09-09T00:58:37.516Z,19.39
2022-09-09T00:59:51.423Z,19.33
2022-09-09T01:01:22.273Z,19.17
2022-09-09T01:02:28.371Z,19.05
2022-09-09T01:03:54.508Z,18.86
2022-09-09T01:05:06.082Z,18.46
2022-09-09T01:06:32.914Z,18.13
2022-09-09T01:07:37.320Z,17.87
2022-09-09T01:08:54.540Z,17.64
2022-09-09T01:10:04.732Z,17.29
2022-09-09T01:11:15.030Z,17.08
2022-09-09T01:12:24.485Z,16.81
2022-09-09T01:13:36.556Z,16.55
2022-09-09T01:14:38.650Z,16.38
2022-09-09T01:15:42.738Z,15.90
2022-09-09T01:16:46.546Z,16.09
2022-09-09T01:18:11.934Z,16.01
2022-09-09T01:19:25.414Z,15.94
2022-09-09T01:20:38.540Z,15.81
2022-09-09T01:21:56.306Z,15.80
2022-09-09T01:23:18.497Z,15.71
2022-09-09T01:24:43.374Z,15.57
2022-09-09T01:26:06.667Z,15.33
2022-09-09T01:27:10.387Z,15.45
2022-09-09T01:28:17.678Z,15.43
2022-09-09T01:29:21.857Z,15.39
2022-09-09T01:30:24.008Z,15.26
2022-09-09T01:31:38.949Z,15.31
2022-09-09T01:32:52.201Z,15.30
2022-09-09T01:33:53.920Z,15.33
2022-09-09T01:34:55.746Z,15.38
2022-09-09T01:36:08.968Z,15.42
2022-09-09T01:37:13.036Z,15.37
2022-09-09T01:38:15.552Z,15.47
2022-09-09T01:39:18.551Z,15.47
2022-09-09T01:40:20.255Z,15.38
2022-09-09T01:41:22.198Z,15.30
2022-09-09T01:42:23.749Z,15.40
2022-09-09T01:43:26.400Z,15.33
2022-09-09T01:44:29.343Z,15.36
2022-09-09T01:45:32.361Z,15.30
2022-09-09T01:46:34.101Z,15.31
2022-09-09T01:47:37.321Z,15.26
2022-09-09T01:48:40.490Z,15.26
2022-09-09T01:49:42.234Z,15.24
2022-09-09T01:50:43.926Z,15.21
2022-09-09T01:51:50.334Z,15.18
2022-09-09T01:52:59.547Z,14.99
2022-09-09T01:54:02.959Z,15.16
2022-09-09T01:55:05.820Z,14.85
2022-09-09T01:56:37.063Z,14.92
2022-09-09T01:57:55.079Z,15.03
2022-09-09T01:59:10.545Z,15.21
2022-09-09T02:00:15.592Z,15.26
2022-09-09T02:01:44.102Z,15.28
2022-09-09T02:03:01.951Z,15.25
2022-09-09T02:04:29.347Z,15.00
2022-09-09T02:05:38.385Z,15.16
2022-09-09T02:06:41.430Z,15.19
2022-09-09T02:07:59.154Z,15.18
2022-09-09T02:09:04.463Z,15.09
2022-09-09T02:10:36.611Z,15.19
2022-09-09T02:11:39.278Z,15.19
2022-09-09T02:12:45.586Z,15.01
2022-09-09T02:13:49.995Z,15.18
2022-09-09T02:14:57.366Z,15.17
2022-09-09T02:16:05.564Z,15.18
2022-09-09T02:17:11.730Z,15.16
2022-09-09T02:18:18.514Z,15.14
2022-09-09T02:19:28.683Z,15.11
2022-09-09T02:20:35.214Z,15.01
2022-09-09T02:21:37.956Z,14.99
2022-09-09T02:22:43.407Z,15.13
2022-09-09T02:23:48.177Z,15.09
2022-09-09T02:24:54.666Z,15.04
2022-09-09T02:26:00.431Z,15.14
2022-09-09T02:27:08.068Z,15.07
2022-09-09T02:28:12.006Z,15.14
2022-09-09T02:29:17.942Z,15.11
2022-09-09T02:30:21.653Z,15.11
2022-09-09T02:31:26.309Z,15.06
2022-09-09T02:32:31.541Z,15.03
2022-09-09T02:33:43.922Z,14.96
2022-09-09T02:34:51.208Z,15.07
2022-09-09T02:35:54.989Z,14.91
2022-09-09T02:37:00.979Z,14.77
2022-09-09T02:38:09.286Z,14.91
2022-09-09T02:39:12.906Z,14.95
2022-09-09T02:40:17.738Z,14.91
2022-09-09T02:41:29.433Z,15.07
2022-09-09T02:42:31.453Z,15.03
2022-09-09T02:43:34.645Z,14.97
2022-09-09T02:44:38.083Z,14.99
2022-09-09T02:45:51.202Z,14.94
2022-09-09T02:47:04.559Z,14.99
2022-09-09T02:48:29.630Z,14.93
2022-09-09T02:49:40.314Z,14.93
2022-09-09T02:50:58.409Z,14.85
2022-09-09T02:52:06.710Z,14.93
2022-09-09T02:53:18.759Z,14.91
2022-09-09T02:54:32.143Z,14.73
2022-09-09T02:55:46.458Z,14.74
2022-09-09T02:56:57.422Z,14.75
2022-09-09T02:58:00.709Z,14.58
2022-09-09T02:59:06.390Z,14.60
2022-09-09T03:00:08.677Z,14.59
2022-09-09T03:01:10.402Z,14.48
2022-09-09T03:02:13.918Z,14.47
2022-09-09T03:03:17.376Z,14.54
2022-09-09T03:04:20.310Z,14.61
2022-09-09T03:05:22.041Z,14.58
2022-09-09T03:06:24.182Z,14.58
2022-09-09T03:07:26.138Z,14.45
2022-09-09T03:08:28.713Z,14.60
2022-09-09T03:09:31.299Z,14.62
2022-09-09T03:10:34.082Z,14.54
2022-09-09T03:11:36.404Z,14.54
2022-09-09T03:12:37.901Z,14.51
2022-09-09T03:13:39.433Z,14.40
2022-09-09T03:14:42.423Z,14.38
2022-09-09T03:15:44.227Z,14.58
2022-09-09T03:16:45.985Z,14.62
2022-09-09T03:17:51.192Z,14.45
2022-09-09T03:18:53.301Z,14.68
2022-09-09T03:19:56.004Z,14.61
2022-09-09T03:20:58.871Z,14.63
2022-09-09T03:22:01.205Z,14.73
2022-09-09T03:23:03.973Z,14.76
2022-09-09T03:24:06.077Z,14.65
2022-09-09T03:25:08.265Z,14.74
2022-09-09T03:26:09.921Z,14.61
2022-09-09T03:27:11.557Z,14.39
2022-09-09T03:28:13.607Z,14.63
2022-09-09T03:29:15.753Z,14.64
2022-09-09T03:30:17.731Z,14.70
2022-09-09T03:31:20.442Z,14.60
2022-09-09T03:32:27.522Z,14.59
2022-09-09T03:33:30.623Z,14.47
2022-09-09T03:34:32.722Z,14.50
2022-09-09T03:35:34.258Z,14.31
2022-09-09T03:36:37.277Z,14.56
2022-09-09T03:37:40.100Z,14.53
2022-09-09T03:38:43.068Z,14.27
2022-09-09T03:39:45.211Z,14.55
2022-09-09T03:40:56.487Z,14.53
2022-09-09T03:41:58.386Z,14.50
2022-09-09T03:43:00.545Z,14.39
2022-09-09T03:44:02.334Z,14.09
2022-09-09T03:45:11.572Z,14.44
2022-09-09T03:46:13.165Z,14.45
2022-09-09T03:47:14.889Z,14.25
2022-09-09T03:48:19.934Z,14.47
2022-09-09T03:49:23.017Z,14.38
2022-09-09T03:50:24.745Z,14.40
2022-09-09T03:51:27.705Z,14.37
2022-09-09T03:52:29.683Z,14.42
2022-09-09T03:53:31.468Z,14.38
2022-09-09T03:54:32.991Z,14.40
2022-09-09T03:55:34.641Z,14.46
2022-09-09T03:56:36.734Z,14.21
2022-09-09T03:57:38.930Z,14.08
2022-09-09T03:58:41.014Z,14.36
2022-09-09T03:59:42.896Z,14.50
2022-09-09T04:00:46.354Z,14.41
2022-09-09T04:01:48.285Z,14.47
2022-09-09T04:02:50.760Z,14.19
2022-09-09T04:03:53.687Z,14.31
2022-09-09T04:04:55.666Z,14.24
2022-09-09T04:06:02.906Z,14.50
2022-09-09T04:07:07.804Z,14.32
2022-09-09T04:08:10.797Z,14.29
2022-09-09T04:09:12.517Z,14.30
2022-09-09T04:10:14.946Z,14.54
2022-09-09T04:11:17.865Z,14.57
2022-09-09T04:12:19.746Z,14.48
2022-09-09T04:13:21.747Z,14.52
2022-09-09T04:14:23.722Z,14.55
2022-09-09T04:15:25.234Z,14.36
2022-09-09T04:16:27.041Z,14.34
2022-09-09T04:17:29.273Z,14.51
2022-09-09T04:18:31.864Z,14.55
2022-09-09T04:19:34.737Z,14.48
2022-09-09T04:20:37.480Z,14.58
2022-09-09T04:21:40.828Z,14.59
2022-09-09T04:22:42.671Z,14.51
2022-09-09T04:23:44.496Z,14.42
2022-09-09T04:24:48.804Z,14.65
2022-09-09T04:25:55.849Z,14.63
2022-09-09T04:26:57.503Z,14.45
2022-09-09T04:27:59.384Z,14.48
2022-09-09T04:29:01.542Z,14.59
2022-09-09T04:30:03.966Z,14.27
2022-09-09T04:31:13.013Z,14.56
2022-09-09T04:32:14.943Z,14.04
2022-09-09T04:33:18.649Z,14.58
2022-09-09T04:34:20.659Z,14.51
2022-09-09T04:35:22.208Z,14.49
2022-09-09T04:36:24.175Z,14.57
2022-09-09T04:37:26.772Z,14.55
2022-09-09T04:38:28.288Z,14.27
2022-09-09T04:39:30.618Z,14.55
2022-09-09T04:40:32.767Z,14.34
2022-09-09T04:41:34.534Z,14.43
2022-09-09T04:42:38.943Z,14.34
2022-09-09T04:43:40.642Z,14.48
2022-09-09T04:44:42.514Z,14.48
2022-09-09T04:45:48.586Z,14.56
2022-09-09T04:46:50.479Z,14.46
2022-09-09T04:47:52.560Z,14.55
2022-09-09T04:48:55.046Z,14.62
2022-09-09T04:49:57.729Z,14.43
2022-09-09T04:51:00.995Z,14.44
2022-09-09T04:52:03.771Z,14.19
2022-09-09T04:53:06.149Z,14.57
2022-09-09T04:54:08.361Z,14.39
2022-09-09T04:55:10.891Z,14.66
2022-09-09T04:56:15.771Z,14.68
2022-09-09T04:57:18.858Z,14.55
2022-09-09T04:58:23.439Z,14.73
2022-09-09T04:59:26.638Z,14.73
2022-09-09T05:00:28.483Z,14.74
2022-09-09T05:01:30.148Z,14.55
2022-09-09T05:02:33.204Z,14.52
2022-09-09T05:03:38.895Z,14.66
2022-09-09T05:04:40.610Z,14.64
2022-09-09T05:05:42.136Z,14.53
2022-09-09T05:06:44.126Z,14.66
2022-09-09T05:07:45.737Z,14.44
2022-09-09T05:08:47.384Z,14.25
2022-09-09T05:09:50.795Z,14.60
2022-09-09T05:10:53.791Z,14.58
2022-09-09T05:11:55.934Z,14.38
2022-09-09T05:12:57.639Z,14.51
2022-09-09T05:13:59.233Z,14.43
2022-09-09T05:15:00.751Z,14.63
2022-09-09T05:16:02.568Z,14.73
2022-09-09T05:17:04.821Z,14.74
2022-09-09T05:18:06.415Z,14.74
2022-09-09T05:19:10.638Z,14.73
2022-09-09T05:20:17.357Z,14.65
2022-09-09T05:21:21.827Z,14.46
2022-09-09T05:22:24.636Z,14.74
2022-09-09T05:23:26.563Z,14.45
2022-09-09T05:24:28.755Z,14.78
2022-09-09T05:25:30.856Z,14.85
2022-09-09T05:26:33.376Z,14.87
2022-09-09T05:27:35.484Z,14.90
2022-09-09T05:28:39.870Z,14.93
2022-09-09T05:29:44.318Z,14.79
2022-09-09T05:30:46.290Z,14.83
2022-09-09T05:31:51.353Z,14.58
2022-09-09T05:32:55.721Z,14.93
2022-09-09T05:33:57.382Z,14.56
2022-09-09T05:34:59.980Z,14.80
2022-09-09T05:36:04.930Z,14.68
2022-09-09T05:37:07.895Z,14.80
2022-09-09T05:38:09.450Z,15.05
2022-09-09T05:39:13.052Z,15.09
2022-09-09T05:40:15.173Z,15.05
2022-09-09T05:41:19.050Z,15.43
2022-09-09T05:42:22.497Z,15.47
2022-09-09T05:43:25.279Z,15.53
2022-09-09T05:44:28.863Z,15.58
2022-09-09T05:45:30.477Z,15.39
2022-09-09T05:46:33.357Z,15.54
2022-09-09T05:47:35.790Z,15.43
2022-09-09T05:48:42.418Z,14.93
2022-09-09T05:49:44.620Z,15.81
2022-09-09T05:50:54.336Z,15.86
2022-09-09T05:51:56.173Z,16.00
2022-09-09T05:53:00.360Z,15.72
2022-09-09T05:54:01.925Z,15.65
2022-09-09T05:55:05.514Z,15.65
2022-09-09T05:56:16.672Z,15.88
2022-09-09T05:57:20.377Z,15.64
2022-09-09T05:58:24.646Z,15.86
2022-09-09T05:59:26.293Z,15.92
2022-09-09T06:00:28.475Z,15.91
2022-09-09T06:01:34.220Z,15.87
2022-09-09T06:02:37.993Z,15.82
2022-09-09T06:03:41.395Z,15.95
2022-09-09T06:04:43.953Z,15.96
2022-09-09T06:05:47.111Z,15.62
2022-09-09T06:06:49.806Z,15.42
2022-09-09T06:07:54.603Z,15.75
2022-09-09T06:09:01.126Z,15.67
2022-09-09T06:10:02.992Z,15.76
2022-09-09T06:11:06.196Z,15.91
2022-09-09T06:12:08.989Z,15.64
2022-09-09T06:13:12.141Z,15.64
2022-09-09T06:14:14.478Z,15.82
2022-09-09T06:15:16.330Z,15.89
2022-09-09T06:16:20.258Z,15.82
2022-09-09T06:17:22.279Z,15.96
2022-09-09T06:18:23.981Z,15.91
2022-09-09T06:19:27.637Z,15.55
2022-09-09T06:20:31.579Z,15.97
2022-09-09T06:21:38.291Z,15.76
2022-09-09T06:22:42.387Z,16.09
2022-09-09T06:23:45.802Z,16.11
2022-09-09T06:24:48.295Z,15.56
2022-09-09T06:25:50.183Z,16.13
2022-09-09T06:26:51.910Z,16.71
2022-09-09T06:27:53.843Z,16.89
2022-09-09T06:28:56.647Z,16.83
2022-09-09T06:29:58.567Z,16.98
2022-09-09T06:31:01.785Z,17.16
2022-09-09T06:32:05.289Z,16.94
2022-09-09T06:33:07.463Z,16.85
2022-09-09T06:34:11.527Z,17.45
2022-09-09T06:35:14.582Z,17.66
2022-09-09T06:36:24.961Z,17.72
2022-09-09T06:37:27.856Z,17.71
2022-09-09T06:38:29.836Z,18.18
2022-09-09T06:39:32.752Z,18.21
2022-09-09T06:40:37.359Z,18.10
2022-09-09T06:41:39.621Z,17.89
2022-09-09T06:42:41.552Z,18.14
2022-09-09T06:43:48.607Z,18.17
2022-09-09T06:44:50.378Z,18.24
2022-09-09T06:45:56.857Z,18.43
2022-09-09T06:46:58.630Z,18.28
2022-09-09T06:48:00.732Z,18.10
2022-09-09T06:49:03.477Z,18.32
2022-09-09T06:50:06.778Z,18.18
2022-09-09T06:51:15.134Z,18.24
2022-09-09T06:52:19.475Z,18.04
2022-09-09T06:53:23.241Z,18.12
2022-09-09T06:54:26.051Z,18.10
2022-09-09T06:55:27.790Z,18.07
2022-09-09T06:56:31.994Z,17.99
2022-09-09T06:57:37.348Z,17.85
2022-09-09T06:58:44.342Z,17.85
2022-09-09T06:59:45.935Z,17.91
2022-09-09T07:00:47.811Z,18.39
2022-09-09T07:01:53.565Z,19.16
2022-09-09T07:02:59.850Z,19.50
2022-09-09T07:04:03.175Z,19.47
2022-09-09T07:05:05.464Z,19.36
2022-09-09T07:06:08.444Z,19.22
2022-09-09T07:07:13.280Z,19.08
2022-09-09T07:08:16.178Z,18.92
2022-09-09T07:09:20.040Z,18.90
2022-09-09T07:10:21.766Z,18.60
2022-09-09T07:11:28.111Z,18.97
2022-09-09T07:12:29.937Z,19.48
2022-09-09T07:13:32.563Z,19.78
2022-09-09T07:14:35.495Z,20.38
2022-09-09T07:15:37.283Z,21.42
2022-09-09T07:16:39.779Z,22.05
2022-09-09T07:17:41.858Z,22.79
2022-09-09T07:18:45.053Z,23.08
2022-09-09T07:19:46.869Z,22.64
2022-09-09T07:20:58.991Z,22.78
2022-09-09T07:22:00.782Z,22.46
2022-09-09T07:23:02.406Z,22.31
2022-09-09T07:24:06.129Z,22.17
2022-09-09T07:25:09.089Z,21.95
2022-09-09T07:26:16.398Z,21.87
2022-09-09T07:27:17.945Z,21.90
2022-09-09T07:28:21.452Z,22.13
2022-09-09T07:29:23.023Z,22.71
2022-09-09T07:30:27.738Z,22.59
2022-09-09T07:31:35.452Z,22.60
2022-09-09T07:32:37.335Z,22.48
2022-09-09T07:33:39.230Z,22.37
2022-09-09T07:34:41.002Z,21.75
2022-09-09T07:35:42.965Z,21.47
2022-09-09T07:36:45.261Z,21.23
2022-09-09T07:37:50.871Z,20.98
2022-09-09T07:38:55.711Z,20.73
2022-09-09T07:39:57.287Z,20.73
2022-09-09T07:41:12.780Z,20.74
2022-09-09T07:42:16.136Z,20.75
2022-09-09T07:43:20.096Z,20.55
2022-09-09T07:44:24.358Z,20.96
2022-09-09T07:45:26.240Z,20.90
2022-09-09T07:46:29.020Z,21.41
2022-09-09T07:47:30.771Z,22.18
2022-09-09T07:48:34.872Z,22.69
2022-09-09T07:49:36.437Z,23.23
2022-09-09T07:50:40.695Z,24.14
2022-09-09T07:51:45.509Z,24.76
2022-09-09T07:52:47.119Z,25.76
2022-09-09T07:53:49.992Z,26.44
2022-09-09T07:54:51.532Z,27.26
2022-09-09T07:55:54.696Z,28.21
2022-09-09T07:56:56.223Z,28.25
2022-09-09T07:57:59.020Z,28.66
2022-09-09T07:59:01.098Z,28.87
2022-09-09T08:00:04.901Z,28.26
2022-09-09T08:01:31.425Z,27.17
2022-09-09T08:02:32.941Z,25.89
2022-09-09T08:03:34.504Z,25.17
2022-09-09T08:04:36.422Z,24.76
2022-09-09T08:05:41.242Z,25.00
2022-09-09T08:06:45.342Z,25.66
2022-09-09T08:07:47.583Z,26.06
2022-09-09T08:08:52.373Z,26.28
2022-09-09T08:09:56.625Z,26.85
2022-09-09T08:11:08.461Z,27.42
2022-09-09T08:12:12.038Z,27.77
2022-09-09T08:13:18.238Z,27.94
2022-09-09T08:14:20.670Z,27.01
2022-09-09T08:15:23.194Z,26.10
2022-09-09T08:16:31.565Z,25.41
2022-09-09T08:17:33.911Z,25.54
2022-09-09T08:18:36.376Z,25.73
2022-09-09T08:19:38.166Z,26.07
2022-09-09T08:20:40.163Z,25.79
2022-09-09T08:21:43.431Z,26.27
2022-09-09T08:22:45.126Z,26.73
2022-09-09T08:23:48.362Z,26.87
2022-09-09T08:24:50.287Z,27.42
2022-09-09T08:25:51.954Z,27.73
2022-09-09T08:26:54.616Z,27.86
2022-09-09T08:27:56.839Z,27.79
2022-09-09T08:29:00.508Z,27.23
2022-09-09T08:30:02.129Z,26.79
2022-09-09T08:31:08.764Z,24.66
2022-09-09T08:32:10.706Z,23.89
2022-09-09T08:33:13.414Z,23.77
2022-09-09T08:34:15.324Z,23.41
2022-09-09T08:35:19.289Z,22.84
2022-09-09T08:36:23.798Z,22.65
2022-09-09T08:37:25.993Z,22.81
2022-09-09T08:38:28.568Z,22.92
2022-09-09T08:39:30.389Z,22.54
2022-09-09T08:40:38.410Z,22.21
2022-09-09T08:42:12.731Z,22.44
2022-09-09T08:43:16.013Z,22.22
2022-09-09T08:44:39.153Z,22.36
2022-09-09T08:45:51.491Z,22.38
2022-09-09T08:47:07.390Z,22.60
2022-09-09T08:48:20.695Z,22.04
2022-09-09T08:49:43.680Z,22.08
2022-09-09T08:50:47.702Z,22.13
2022-09-09T08:51:50.749Z,22.29
2022-09-09T08:52:55.786Z,22.43
2022-09-09T08:54:04.166Z,22.40
2022-09-09T08:55:46.554Z,22.52
2022-09-09T08:56:49.113Z,22.55
2022-09-09T08:57:53.725Z,22.60
2022-09-09T08:58:57.958Z,23.05
2022-09-09T09:00:01.021Z,23.33
2022-09-09T09:01:35.650Z,23.67
2022-09-09T09:03:11.214Z,24.40
2022-09-09T09:04:56.767Z,24.43
2022-09-09T09:06:35.487Z,23.60
2022-09-09T09:07:52.966Z,22.95
2022-09-09T09:09:09.391Z,22.60
2022-09-09T09:10:42.696Z,22.45
2022-09-09T09:12:02.138Z,21.60
2022-09-09T09:13:04.520Z,22.00
2022-09-09T09:15:42.759Z,21.72
2022-09-09T09:17:06.621Z,21.96
2022-09-09T09:18:13.709Z,21.84
2022-09-09T09:19:17.867Z,21.77
2022-09-09T09:20:28.214Z,21.84
2022-09-09T09:21:37.849Z,21.59
2022-09-09T09:22:49.425Z,21.16
2022-09-09T09:24:00.142Z,20.63
2022-09-09T09:25:21.490Z,20.51
2022-09-09T09:26:34.142Z,20.05
2022-09-09T09:27:42.635Z,20.22
2022-09-09T09:28:46.457Z,19.99
2022-09-09T09:30:21.084Z,19.58
2022-09-09T09:31:15.074Z,20.54
2022-09-09T09:32:21.401Z,20.61
2022-09-09T09:33:34.230Z,21.72
2022-09-09T09:34:36.214Z,22.47
2022-09-09T09:35:42.973Z,23.34
2022-09-09T09:36:53.625Z,24.20
2022-09-09T09:40:59.696Z,26.57
2022-09-09T09:42:12.603Z,26.83
2022-09-09T09:43:28.971Z,26.83
2022-09-09T09:44:34.183Z,26.73
2022-09-09T09:46:06.786Z,26.38
2022-09-09T09:47:29.110Z,24.72
2022-09-09T09:48:32.852Z,25.16
2022-09-09T09:49:34.526Z,24.81
2022-09-09T09:50:41.900Z,24.32
2022-09-09T09:51:44.721Z,23.84
2022-09-09T09:52:56.788Z,23.48
2022-09-09T09:54:23.997Z,23.08
2022-09-09T09:55:27.161Z,22.67
2022-09-09T09:56:30.601Z,21.99
2022-09-09T09:57:34.216Z,21.53
2022-09-09T09:58:51.817Z,21.02
2022-09-09T10:00:10.448Z,20.52
2022-09-09T10:01:34.673Z,20.33
2022-09-09T10:02:44.311Z,20.41
2022-09-09T10:04:03.932Z,20.18
2022-09-09T10:05:14.368Z,19.96
2022-09-09T10:06:16.555Z,19.91
2022-09-09T10:07:23.267Z,19.64
2022-09-09T10:08:27.310Z,19.28
2022-09-09T10:09:34.100Z,19.23
2022-09-09T10:10:36.404Z,19.12
2022-09-09T10:11:55.934Z,18.98
2022-09-09T10:13:18.949Z,18.82
2022-09-09T10:14:41.094Z,18.62
2022-09-09T10:15:57.121Z,18.53
2022-09-09T10:17:29.159Z,18.52
2022-09-09T10:18:51.696Z,18.51
2022-09-09T10:20:00.842Z,18.48
2022-09-09T10:21:21.686Z,18.44
2022-09-09T10:22:31.494Z,18.58
2022-09-09T10:23:56.148Z,18.33
2022-09-09T10:25:25.533Z,18.90
2022-09-09T10:26:46.632Z,20.10
2022-09-09T10:28:06.221Z,21.35
2022-09-09T10:29:44.998Z,22.57
2022-09-09T10:31:08.401Z,22.25
2022-09-09T10:32:47.369Z,22.46
2022-09-09T10:34:02.474Z,22.44
2022-09-09T10:35:14.183Z,22.14
2022-09-09T10:36:16.123Z,21.80
2022-09-09T10:37:36.384Z,21.30
2022-09-09T10:38:44.390Z,21.11
2022-09-09T10:39:46.226Z,20.20
2022-09-09T10:40:57.466Z,20.73
2022-09-09T10:42:05.256Z,20.29
2022-09-09T10:43:35.895Z,20.31
2022-09-09T10:45:12.579Z,19.99
2022-09-09T10:46:22.040Z,19.75
2022-09-09T10:48:12.928Z,19.86
2022-09-09T10:49:32.720Z,19.90
2022-09-09T10:51:01.317Z,20.04
2022-09-09T10:52:30.913Z,20.25
2022-09-09T10:53:38.898Z,20.08
2022-09-09T10:55:13.750Z,20.14
2022-09-09T10:56:19.690Z,19.79
2022-09-09T10:57:38.173Z,19.83
2022-09-09T10:58:48.490Z,19.71
2022-09-09T10:59:58.081Z,19.70
2022-09-09T11:01:10.598Z,19.65
2022-09-09T11:02:28.955Z,19.61
2022-09-09T11:03:34.682Z,19.62
2022-09-09T11:04:44.430Z,19.84
2022-09-09T11:05:55.241Z,20.75
2022-09-09T11:06:57.597Z,21.17
2022-09-09T11:08:32.598Z,22.99
2022-09-09T11:09:42.861Z,23.86
2022-09-09T11:11:08.894Z,24.92
2022-09-09T11:12:16.871Z,24.83
2022-09-09T11:13:27.455Z,25.02
2022-09-09T11:14:46.536Z,25.72
2022-09-09T11:15:55.895Z,25.79
2022-09-09T11:17:07.767Z,25.09
2022-09-09T11:18:19.122Z,25.95
2022-09-09T11:19:27.016Z,26.96
2022-09-09T11:20:29.683Z,26.98
2022-09-09T11:21:39.471Z,27.24
2022-09-09T11:22:52.290Z,27.07
2022-09-09T11:24:00.245Z,27.47
2022-09-09T11:25:13.793Z,28.19
2022-09-09T11:26:30.857Z,28.35
2022-09-09T11:27:40.629Z,27.24
2022-09-09T11:29:04.893Z,27.30
2022-09-09T11:30:53.664Z,26.72
2022-09-09T11:32:01.072Z,26.07
2022-09-09T11:33:26.561Z,25.05
2022-09-09T11:35:04.329Z,24.62
2022-09-09T11:36:34.459Z,24.11
2022-09-09T11:37:39.122Z,23.87
2022-09-09T11:38:48.653Z,23.84
2022-09-09T11:40:06.347Z,23.63
2022-09-09T11:41:11.168Z,23.16
2022-09-09T11:42:26.308Z,23.08
2022-09-09T11:43:33.056Z,22.90
2022-09-09T11:45:42.941Z,22.73
2022-09-09T11:46:53.325Z,23.33
2022-09-09T11:47:57.692Z,24.10
2022-09-09T11:49:04.747Z,25.32
2022-09-09T11:50:10.901Z,26.58
2022-09-09T11:51:22.015Z,27.98
2022-09-09T11:52:46.977Z,28.21
2022-09-09T11:54:04.324Z,28.34
2022-09-09T11:55:13.570Z,29.02
2022-09-09T11:56:27.185Z,29.99
2022-09-09T11:57:39.398Z,31.09
2022-09-09T11:58:54.717Z,30.82
2022-09-09T11:59:57.571Z,31.09
2022-09-09T12:00:59.672Z,31.12
2022-09-09T12:02:14.356Z,31.40
2022-09-09T12:03:44.715Z,31.53
2022-09-09T12:05:21.539Z,28.79
2022-09-09T12:06:50.107Z,28.89
2022-09-09T12:08:00.314Z,29.22
2022-09-09T12:09:24.362Z,29.20
2022-09-09T12:10:43.521Z,29.26
2022-09-09T12:11:46.507Z,28.97
2022-09-09T12:12:48.902Z,29.17
2022-09-09T12:13:55.567Z,29.03
2022-09-09T12:15:04.880Z,29.38
2022-09-09T12:16:09.735Z,29.98
2022-09-09T12:17:23.899Z,30.52
2022-09-09T12:18:45.506Z,30.65
2022-09-09T12:19:48.334Z,29.97
2022-09-09T12:21:03.746Z,29.37
2022-09-09T12:22:21.296Z,29.24
2022-09-09T12:23:51.394Z,27.95
2022-09-09T12:25:23.033Z,27.26
2022-09-09T12:26:34.595Z,27.42
2022-09-09T12:27:54.425Z,26.59
2022-09-09T12:29:07.852Z,25.83
2022-09-09T12:30:16.998Z,25.21
2022-09-09T12:31:45.732Z,24.47
2022-09-09T12:32:47.669Z,24.20
2022-09-09T12:33:49.701Z,23.78
2022-09-09T12:34:59.638Z,23.86
2022-09-09T12:36:04.159Z,24.01
2022-09-09T12:37:36.820Z,23.78
2022-09-09T12:38:42.525Z,23.32
2022-09-09T12:39:54.806Z,22.85
2022-09-09T12:40:59.619Z,23.21
2022-09-09T12:42:01.612Z,23.25
2022-09-09T12:43:23.019Z,24.27
2022-09-09T12:44:27.063Z,25.07
2022-09-09T12:45:34.449Z,26.18
2022-09-09T12:46:43.771Z,27.06
2022-09-09T12:48:08.610Z,27.25
2022-09-09T12:49:43.469Z,28.09
2022-09-09T12:50:53.562Z,28.39
2022-09-09T12:51:57.306Z,28.78
2022-09-09T12:53:22.092Z,28.48
2022-09-09T12:54:26.570Z,27.80
2022-09-09T12:55:37.086Z,27.36
2022-09-09T12:56:40.781Z,26.61
2022-09-09T12:57:44.285Z,25.83
2022-09-09T12:58:48.903Z,24.97
2022-09-09T12:59:50.629Z,24.34
2022-09-09T13:02:22.872Z,23.71
2022-09-09T13:03:26.055Z,23.64
2022-09-09T13:04:29.368Z,23.64
2022-09-09T13:05:40.256Z,23.96
2022-09-09T13:06:42.395Z,24.74
2022-09-09T13:07:44.696Z,25.44
2022-09-09T13:08:46.336Z,25.90
2022-09-09T13:09:50.221Z,26.24
2022-09-09T13:11:04.161Z,26.76
2022-09-09T13:12:14.678Z,27.58
2022-09-09T13:13:24.081Z,27.28
2022-09-09T13:14:38.477Z,26.82
2022-09-09T13:15:42.908Z,26.21
2022-09-09T13:17:06.079Z,25.95
2022-09-09T13:18:14.429Z,25.66
2022-09-09T13:19:18.461Z,25.50
2022-09-09T13:20:21.686Z,24.95
2022-09-09T13:21:36.270Z,24.38
2022-09-09T13:22:41.829Z,24.41
2022-09-09T13:23:50.573Z,24.23
2022-09-09T13:25:17.899Z,24.06
2022-09-09T13:26:28.202Z,23.86
2022-09-09T13:27:31.951Z,23.52
2022-09-09T13:28:34.594Z,23.40
2022-09-09T13:29:38.510Z,23.06
2022-09-09T13:30:42.262Z,22.62
2022-09-09T13:31:44.259Z,22.33
2022-09-09T13:32:46.110Z,22.10
2022-09-09T13:33:47.828Z,21.67
2022-09-09T13:34:58.727Z,20.51
2022-09-09T13:36:12.469Z,19.80
2022-09-09T13:37:38.560Z,18.88
2022-09-09T13:38:58.184Z,18.31
2022-09-09T13:40:00.828Z,17.94
2022-09-09T13:41:11.603Z,17.79
2022-09-09T13:42:26.602Z,17.85
2022-09-09T13:43:29.819Z,17.78
2022-09-09T13:44:36.558Z,17.64
2022-09-09T13:45:40.131Z,17.55
2022-09-09T13:46:42.240Z,17.65
2022-09-09T13:47:44.658Z,17.36
2022-09-09T13:48:55.703Z,17.60
2022-09-09T13:49:57.726Z,17.60
2022-09-09T13:51:02.679Z,17.85
2022-09-09T13:52:14.813Z,18.00
2022-09-09T13:53:16.642Z,18.49
2022-09-09T13:54:20.945Z,18.88
2022-09-09T13:55:24.805Z,19.41
2022-09-09T13:56:26.393Z,20.25
2022-09-09T13:57:28.235Z,20.95
2022-09-09T13:58:30.406Z,21.73
2022-09-09T14:00:56.930Z,22.62
2022-09-09T14:01:59.292Z,23.39
2022-09-09T14:03:03.287Z,23.75
2022-09-09T14:04:07.802Z,23.24
2022-09-09T14:05:10.899Z,23.01
2022-09-09T14:06:12.925Z,23.36
2022-09-09T14:07:16.552Z,23.27
2022-09-09T14:08:24.965Z,24.02
2022-09-09T14:09:26.860Z,24.29
2022-09-09T14:10:29.151Z,24.17
2022-09-09T14:11:31.113Z,24.26
2022-09-09T14:12:33.023Z,23.99
2022-09-09T14:13:35.810Z,24.50
2022-09-09T14:14:38.896Z,24.69
2022-09-09T14:15:40.950Z,24.56
2022-09-09T14:16:42.611Z,25.04
2022-09-09T14:17:45.119Z,25.07
2022-09-09T14:18:47.858Z,25.35
2022-09-09T14:19:50.448Z,25.90
2022-09-09T14:20:52.740Z,26.21
2022-09-09T14:21:54.661Z,26.13
2022-09-09T14:23:03.251Z,26.01
2022-09-09T14:24:06.023Z,26.57
2022-09-09T14:25:08.413Z,26.82
2022-09-09T14:26:10.248Z,26.44
2022-09-09T14:27:12.148Z,26.43
2022-09-09T14:28:15.434Z,26.11
2022-09-09T14:29:17.295Z,25.54
2022-09-09T14:30:19.457Z,24.76
2022-09-09T14:31:24.996Z,24.39
2022-09-09T14:32:26.938Z,23.98
2022-09-09T14:33:30.608Z,23.63
2022-09-09T14:34:33.377Z,23.58
2022-09-09T14:35:35.439Z,23.39
2022-09-09T14:36:37.121Z,23.08
2022-09-09T14:37:40.100Z,23.15
2022-09-09T14:38:42.553Z,23.10
2022-09-09T14:39:45.174Z,23.01
2022-09-09T14:40:47.922Z,22.93
2022-09-09T14:41:49.475Z,22.81
2022-09-09T14:42:51.143Z,22.82
2022-09-09T14:43:53.000Z,22.73